Time;durP1;ratioP1;P1;durP2;ratioP2;P2;SDS_P1;SDS_P2;PMS_P1;PMS_P2;Temp;Humidity;BMP_temperature;BMP_pressure;BME280_temperature;BME280_humidity;BME280_pressure;Samples;Min_cycle;Max_cycle;Signal;HPM_P1;HPM_P2
2023/05/26 00:01:46;;;;;;;15.25;3.13;;;11.90;97.80;;;;;;5004244;28;20103;-65
2023/05/26 00:04:18;;;;;;;10.68;3.45;;;11.90;97.80;;;;;;5004899;28;20037;-64
2023/05/26 00:06:46;;;;;;;9.60;2.65;;;11.90;97.80;;;;;;5004286;28;20080;-64
2023/05/26 00:09:12;;;;;;;16.77;3.50;;;11.90;97.80;;;;;;5003773;28;20041;-64
2023/05/26 00:11:38;;;;;;;12.27;3.83;;;11.80;97.90;;;;;;5003571;28;20048;-64
2023/05/26 00:14:05;;;;;;;9.43;3.17;;;11.80;97.90;;;;;;5004038;28;20485;-64
2023/05/26 00:16:31;;;;;;;11.80;3.72;;;11.70;97.90;;;;;;4986385;28;20044;-65
2023/05/26 00:18:56;;;;;;;12.35;3.80;;;11.70;98.00;;;;;;5003670;28;20121;-65
2023/05/26 00:21:22;;;;;;;10.13;3.10;;;11.70;98.10;;;;;;5004100;28;20034;-64
2023/05/26 00:23:48;;;;;;;9.98;3.33;;;11.70;98.10;;;;;;5004141;28;20639;-65
2023/05/26 00:26:13;;;;;;;16.85;3.65;;;11.70;98.20;;;;;;4998715;28;20033;-64
2023/05/26 00:28:42;;;;;;;13.68;3.35;;;11.60;98.40;;;;;;4983953;28;20034;-64
2023/05/26 00:31:08;;;;;;;12.15;3.65;;;11.60;98.50;;;;;;4984337;28;20034;-64
2023/05/26 00:33:34;;;;;;;13.75;3.92;;;11.60;98.50;;;;;;4984224;28;20490;-64
2023/05/26 00:35:59;;;;;;;13.50;4.47;;;11.50;98.50;;;;;;4984558;28;20037;-65
2023/05/26 00:38:25;;;;;;;12.23;3.83;;;11.50;98.50;;;;;;4983477;28;20494;-64
2023/05/26 00:40:51;;;;;;;14.43;4.93;;;11.50;98.60;;;;;;4984137;28;20494;-65
2023/05/26 00:43:17;;;;;;;19.05;4.28;;;11.50;98.70;;;;;;4983675;28;20038;-64
2023/05/26 00:45:43;;;;;;;13.90;3.97;;;11.40;98.70;;;;;;4984349;28;20041;-64
2023/05/26 00:48:09;;;;;;;9.15;3.13;;;11.40;98.80;;;;;;4983870;28;20038;-63
2023/05/26 00:50:35;;;;;;;8.98;3.30;;;11.40;98.80;;;;;;4983742;28;20045;-64
2023/05/26 00:53:01;;;;;;;15.68;3.58;;;11.30;98.80;;;;;;4983847;28;20038;-64
2023/05/26 00:55:28;;;;;;;14.07;4.35;;;11.30;98.90;;;;;;4966501;28;20812;-64
2023/05/26 00:57:55;;;;;;;8.80;3.50;;;11.30;98.90;;;;;;4983299;28;20034;-64
2023/05/26 01:00:22;;;;;;;11.18;3.95;;;11.20;99.00;;;;;;4984064;28;20088;-64
2023/05/26 01:02:49;;;;;;;19.17;4.57;;;11.20;99.10;;;;;;4965793;28;20490;-64
2023/05/26 01:05:16;;;;;;;13.68;3.20;;;11.20;99.20;;;;;;4983442;28;20899;-64
2023/05/26 01:07:42;;;;;;;15.50;4.97;;;11.10;99.20;;;;;;4983166;28;20099;-64
2023/05/26 01:10:10;;;;;;;9.40;3.80;;;11.10;99.30;;;;;;4965773;28;20116;-64
2023/05/26 01:12:42;;;;;;;9.63;3.50;;;11.10;99.30;;;;;;4983643;28;20510;-64
2023/05/26 01:15:26;;;;;;;10.55;3.22;;;11.00;99.40;;;;;;4983775;28;20375;-64
2023/05/26 01:18:03;;;;;;;9.38;3.20;;;11.00;99.50;;;;;;4987529;28;20045;-64
2023/05/26 01:20:38;;;;;;;11.98;3.42;;;11.00;99.50;;;;;;5002778;28;20034;-64
2023/05/26 01:23:16;;;;;;;10.15;2.97;;;10.90;99.40;;;;;;5002757;28;20037;-64
2023/05/26 01:25:56;;;;;;;13.38;4.05;;;10.90;99.50;;;;;;5001281;28;20493;-64
2023/05/26 01:28:26;;;;;;;14.15;3.78;;;10.80;99.50;;;;;;4985026;28;20866;-64
2023/05/26 01:30:53;;;;;;;10.13;3.05;;;10.80;99.60;;;;;;4985229;28;20088;-64
2023/05/26 01:33:19;;;;;;;11.45;3.60;;;10.80;99.80;;;;;;4983947;28;20038;-64
2023/05/26 01:35:45;;;;;;;13.88;4.55;;;10.70;99.80;;;;;;5002871;28;20117;-64
2023/05/26 01:38:11;;;;;;;12.40;3.28;;;10.70;99.90;;;;;;5002243;28;20513;-64
2023/05/26 01:40:43;;;;;;;12.88;3.63;;;10.70;99.90;;;;;;5002577;28;20437;-64
2023/05/26 01:43:16;;;;;;;12.43;3.28;;;10.70;99.90;;;;;;5002648;28;20129;-64
2023/05/26 01:45:56;;;;;;;11.68;3.42;;;10.60;99.90;;;;;;4999456;28;20030;-65
2023/05/26 01:48:23;;;;;;;13.73;3.65;;;10.60;99.90;;;;;;5000871;28;20386;-64
2023/05/26 01:50:57;;;;;;;8.52;3.20;;;10.50;99.90;;;;;;5002665;28;20026;-64
2023/05/26 01:53:34;;;;;;;15.52;3.15;;;10.50;99.90;;;;;;5002664;28;20809;-67
2023/05/26 01:56:00;;;;;;;10.15;3.42;;;10.50;99.90;;;;;;4984751;28;20037;-65
2023/05/26 01:58:27;;;;;;;12.20;4.00;;;10.50;99.90;;;;;;5001921;28;20030;-65
2023/05/26 02:00:53;;;;;;;15.65;3.60;;;10.50;99.90;;;;;;4984296;28;20030;-64
2023/05/26 02:03:20;;;;;;;16.75;4.53;;;10.50;99.90;;;;;;5002574;28;20045;-65
2023/05/26 02:05:46;;;;;;;11.70;3.38;;;10.40;99.90;;;;;;4983997;28;20402;-64
2023/05/26 02:08:12;;;;;;;9.45;3.85;;;10.40;99.90;;;;;;4984192;28;20038;-64
2023/05/26 02:10:39;;;;;;;14.25;3.70;;;10.40;99.90;;;;;;4984841;28;20038;-64
2023/05/26 02:13:05;;;;;;;16.05;3.55;;;10.30;99.90;;;;;;5002251;28;20030;-65
2023/05/26 02:15:32;;;;;;;9.15;3.45;;;10.40;99.90;;;;;;4984437;28;20045;-65
2023/05/26 02:17:58;;;;;;;15.00;3.67;;;10.40;99.90;;;;;;5000806;28;20481;-64
2023/05/26 02:20:25;;;;;;;15.18;3.58;;;10.40;99.90;;;;;;4984034;28;20490;-65
2023/05/26 02:22:51;;;;;;;8.32;3.08;;;10.40;99.90;;;;;;4984749;28;20452;-65
2023/05/26 02:25:17;;;;;;;17.65;3.78;;;10.40;99.90;;;;;;4985765;28;20034;-64
2023/05/26 02:27:43;;;;;;;8.45;3.17;;;10.30;99.90;;;;;;4985839;28;20073;-64
2023/05/26 02:30:09;;;;;;;9.75;3.33;;;10.30;99.90;;;;;;4968037;28;20122;-64
2023/05/26 02:32:36;;;;;;;7.22;2.80;;;10.30;99.90;;;;;;4983995;28;20065;-65
2023/05/26 02:35:05;;;;;;;10.85;3.22;;;10.30;99.90;;;;;;4968046;28;20822;-64
2023/05/26 02:37:31;;;;;;;10.95;3.80;;;10.30;99.90;;;;;;4967322;28;20041;-64
2023/05/26 02:39:58;;;;;;;12.40;3.65;;;10.30;99.90;;;;;;4986001;28;20454;-65
2023/05/26 02:42:24;;;;;;;12.02;3.70;;;10.40;99.90;;;;;;4967775;28;20101;-65
2023/05/26 02:44:52;;;;;;;11.05;3.72;;;10.30;99.90;;;;;;4967711;28;20034;-64
2023/05/26 02:47:18;;;;;;;12.05;3.17;;;10.40;99.90;;;;;;4985645;28;20038;-65
2023/05/26 02:49:43;;;;;;;9.95;3.60;;;10.40;99.90;;;;;;4967974;28;20909;-64
2023/05/26 02:52:09;;;;;;;9.95;3.28;;;10.40;99.90;;;;;;4968205;28;20034;-64
2023/05/26 02:54:35;;;;;;;10.05;3.65;;;10.40;99.90;;;;;;4968204;28;20042;-64
2023/05/26 02:57:01;;;;;;;11.30;3.67;;;10.40;99.90;;;;;;4985671;28;20105;-65
2023/05/26 02:59:27;;;;;;;13.23;4.40;;;10.40;99.90;;;;;;4985524;28;20686;-64
2023/05/26 03:01:53;;;;;;;15.68;4.80;;;10.40;99.90;;;;;;4984848;28;20391;-65
2023/05/26 03:04:18;;;;;;;17.38;3.78;;;10.40;99.90;;;;;;4966981;28;20062;-64
2023/05/26 03:06:44;;;;;;;15.88;3.90;;;10.40;99.90;;;;;;4985687;28;20049;-65
2023/05/26 03:09:12;;;;;;;17.42;4.55;;;10.30;99.90;;;;;;4967126;28;20057;-65
2023/05/26 03:11:38;;;;;;;12.50;3.80;;;10.30;99.90;;;;;;4978933;28;20497;-64
2023/05/26 03:14:04;;;;;;;14.48;4.15;;;10.30;99.90;;;;;;5004421;28;20030;-65
2023/05/26 03:16:29;;;;;;;11.02;4.15;;;10.30;99.90;;;;;;5003003;28;20425;-64
2023/05/26 03:18:57;;;;;;;11.00;3.65;;;10.30;99.90;;;;;;4986196;28;20054;-64
2023/05/26 03:21:23;;;;;;;12.95;4.43;;;10.30;99.90;;;;;;5004365;28;20755;-65
2023/05/26 03:23:49;;;;;;;17.17;4.05;;;10.40;99.90;;;;;;4987041;28;20774;-64
2023/05/26 03:26:15;;;;;;;11.65;4.00;;;10.30;99.90;;;;;;4987046;28;20034;-65
2023/05/26 03:28:41;;;;;;;9.80;3.20;;;10.30;99.90;;;;;;5003232;28;20042;-65
2023/05/26 03:31:08;;;;;;;13.55;4.63;;;10.30;99.90;;;;;;4987247;28;20030;-64
2023/05/26 03:33:34;;;;;;;9.38;3.60;;;10.20;99.90;;;;;;4986470;28;20036;-64
2023/05/26 03:36:00;;;;;;;10.13;3.88;;;10.10;99.90;;;;;;5004708;28;20033;-65
2023/05/26 03:38:27;;;;;;;9.55;3.63;;;10.10;99.90;;;;;;4985986;28;20034;-64
2023/05/26 03:40:54;;;;;;;6.68;3.42;;;10.00;99.90;;;;;;5004392;28;20057;-64
2023/05/26 03:43:21;;;;;;;9.52;3.38;;;10.00;99.90;;;;;;4986377;28;20052;-65
2023/05/26 03:45:47;;;;;;;6.70;3.45;;;10.00;99.90;;;;;;4990254;28;20034;-65
2023/05/26 03:48:14;;;;;;;9.23;3.35;;;10.00;99.90;;;;;;4966397;28;20031;-65
2023/05/26 03:50:43;;;;;;;9.00;3.28;;;10.00;99.90;;;;;;4966061;28;20125;-64
2023/05/26 03:53:10;;;;;;;9.15;3.53;;;10.00;99.90;;;;;;4969685;28;20037;-64
2023/05/26 03:55:36;;;;;;;11.25;3.58;;;9.90;99.90;;;;;;4983469;28;20125;-63
2023/05/26 03:58:04;;;;;;;15.68;3.75;;;10.00;99.90;;;;;;4969222;28;20153;-64
2023/05/26 04:00:32;;;;;;;10.98;3.25;;;10.00;99.90;;;;;;4967636;28;20263;-65
2023/05/26 04:02:59;;;;;;;14.10;4.35;;;10.00;99.90;;;;;;4967845;28;20030;-65
2023/05/26 04:05:26;;;;;;;13.65;3.83;;;10.00;99.90;;;;;;4967216;28;20034;-65
2023/05/26 04:07:53;;;;;;;14.18;4.65;;;10.00;99.90;;;;;;4966983;28;20038;-65
2023/05/26 04:10:19;;;;;;;13.35;3.45;;;10.00;99.90;;;;;;4967507;28;20390;-65
2023/05/26 04:12:45;;;;;;;8.95;3.85;;;10.10;99.90;;;;;;4983092;28;20048;-65
2023/05/26 04:15:11;;;;;;;9.90;3.83;;;10.10;99.90;;;;;;4967375;28;20041;-65
2023/05/26 04:17:37;;;;;;;14.43;4.25;;;10.20;99.90;;;;;;4966596;28;20030;-65
2023/05/26 04:20:22;;;;;;;9.95;3.50;;;10.20;99.90;;;;;;4983712;28;20033;-65
2023/05/26 04:22:48;;;;;;;16.48;5.03;;;10.20;99.90;;;;;;4992085;28;20903;-64
2023/05/26 04:25:16;;;;;;;8.20;3.35;;;10.20;99.90;;;;;;4986354;28;20034;-64
2023/05/26 04:27:58;;;;;;;10.82;4.20;;;10.30;99.90;;;;;;4985033;28;20026;-64
2023/05/26 04:30:39;;;;;;;16.05;4.25;;;10.30;99.90;;;;;;4986340;28;20037;-65
2023/05/26 04:33:23;;;;;;;13.45;4.05;;;10.40;99.90;;;;;;5003690;28;20137;-65
2023/05/26 04:36:09;;;;;;;8.30;3.42;;;10.40;99.90;;;;;;5003433;28;20033;-64
2023/05/26 04:38:41;;;;;;;9.93;3.58;;;10.50;99.90;;;;;;5003379;28;20052;-65
2023/05/26 04:41:07;;;;;;;9.85;4.38;;;10.50;99.90;;;;;;5003073;28;20063;-65
2023/05/26 04:43:36;;;;;;;9.20;3.92;;;10.60;99.90;;;;;;5002256;28;20057;-63
2023/05/26 04:46:02;;;;;;;13.13;5.18;;;10.60;99.90;;;;;;5003244;28;20026;-65
2023/05/26 04:48:29;;;;;;;11.82;3.80;;;10.70;99.90;;;;;;4985277;28;20026;-65
2023/05/26 04:50:55;;;;;;;14.65;3.85;;;10.70;99.90;;;;;;5003987;28;20159;-65
2023/05/26 04:53:21;;;;;;;12.63;4.40;;;10.80;99.90;;;;;;4986241;28;20033;-64
2023/05/26 04:55:47;;;;;;;11.23;3.85;;;10.80;99.90;;;;;;4985528;28;20591;-65
2023/05/26 04:58:13;;;;;;;16.50;5.03;;;10.90;99.90;;;;;;4985393;28;20026;-64
2023/05/26 05:00:40;;;;;;;16.85;4.30;;;11.00;99.90;;;;;;4985265;28;20052;-66
2023/05/26 05:03:24;;;;;;;12.45;4.30;;;11.00;99.90;;;;;;5003415;28;20474;-65
2023/05/26 05:06:11;;;;;;;14.50;4.32;;;11.10;99.90;;;;;;5003109;28;20034;-64
2023/05/26 05:08:37;;;;;;;17.15;4.47;;;11.20;99.90;;;;;;4985283;28;20042;-64
2023/05/26 05:11:04;;;;;;;10.45;3.88;;;11.20;99.90;;;;;;4984744;28;20112;-65
2023/05/26 05:13:32;;;;;;;16.15;4.38;;;11.30;99.90;;;;;;4966014;28;20038;-65
2023/05/26 05:15:59;;;;;;;13.18;4.05;;;11.50;99.90;;;;;;4965811;28;20037;-65
2023/05/26 05:18:25;;;;;;;14.85;5.07;;;11.60;99.90;;;;;;4965761;28;20045;-65
2023/05/26 05:20:51;;;;;;;14.75;5.45;;;11.70;99.90;;;;;;4983652;28;20041;-64
2023/05/26 05:23:18;;;;;;;13.77;5.03;;;11.80;99.90;;;;;;4965987;28;20903;-64
2023/05/26 05:25:44;;;;;;;12.07;4.13;;;12.00;99.90;;;;;;4965185;28;20031;-65
2023/05/26 05:28:10;;;;;;;11.43;4.10;;;12.00;99.90;;;;;;4970317;28;20029;-66
2023/05/26 05:30:41;;;;;;;10.65;4.35;;;12.20;99.90;;;;;;5001078;28;20045;-63
2023/05/26 05:33:07;;;;;;;16.95;4.10;;;12.40;99.90;;;;;;4984455;28;20025;-64
2023/05/26 05:35:34;;;;;;;16.13;4.28;;;12.60;99.90;;;;;;5001867;28;20029;-64
2023/05/26 05:38:01;;;;;;;14.65;4.47;;;12.70;99.90;;;;;;4984773;28;20029;-64
2023/05/26 05:40:27;;;;;;;21.15;5.28;;;12.90;99.90;;;;;;5003084;28;20083;-64
2023/05/26 05:42:53;;;;;;;15.73;4.13;;;13.00;99.90;;;;;;5001391;28;20033;-64
2023/05/26 05:45:20;;;;;;;16.98;4.65;;;13.10;99.90;;;;;;4985020;28;20045;-64
2023/05/26 05:48:09;;;;;;;16.40;4.20;;;13.20;99.90;;;;;;4966074;28;20042;-64
2023/05/26 05:51:01;;;;;;;20.27;5.03;;;13.30;99.90;;;;;;4986493;28;20042;-64
2023/05/26 05:53:26;;;;;;;22.98;5.18;;;13.50;99.30;;;;;;4965782;28;20573;-64
2023/05/26 05:55:52;;;;;;;21.10;4.93;;;13.70;98.30;;;;;;4982851;28;20114;-64
2023/05/26 05:58:19;;;;;;;16.65;4.68;;;13.80;98.20;;;;;;4968462;28;20030;-64
2023/05/26 06:00:46;;;;;;;16.38;4.60;;;13.80;98.50;;;;;;4969063;28;20499;-64
2023/05/26 06:03:11;;;;;;;20.45;4.35;;;13.90;98.40;;;;;;4968995;28;20038;-64
2023/05/26 06:05:37;;;;;;;14.52;4.25;;;14.00;98.60;;;;;;4986772;28;20057;-64
2023/05/26 06:08:04;;;;;;;18.25;4.30;;;14.10;98.40;;;;;;4969099;28;20038;-64
2023/05/26 06:10:29;;;;;;;20.58;5.65;;;14.20;98.30;;;;;;4971245;28;20049;-64
2023/05/26 06:12:57;;;;;;;17.38;4.03;;;14.40;97.90;;;;;;4986909;28;20081;-64
2023/05/26 06:15:23;;;;;;;17.42;4.07;;;14.50;97.70;;;;;;4969166;28;20037;-62
2023/05/26 06:17:49;;;;;;;20.20;4.63;;;14.60;97.30;;;;;;4983875;28;20026;-64
2023/05/26 06:20:15;;;;;;;19.75;4.45;;;14.70;97.40;;;;;;4969245;28;20030;-65
2023/05/26 06:22:41;;;;;;;16.98;4.35;;;14.80;97.00;;;;;;4968271;28;20128;-64
2023/05/26 06:25:07;;;;;;;19.63;4.97;;;14.80;96.80;;;;;;4968149;28;20035;-65
2023/05/26 06:27:33;;;;;;;21.23;4.75;;;15.00;96.60;;;;;;4984337;28;20034;-64
2023/05/26 06:29:59;;;;;;;20.08;4.97;;;15.20;96.00;;;;;;4968674;28;20034;-64
2023/05/26 06:32:26;;;;;;;15.95;4.63;;;15.30;95.90;;;;;;4967765;28;20038;-65
2023/05/26 06:34:51;;;;;;;14.80;4.05;;;15.40;96.00;;;;;;4968815;28;20041;-64
2023/05/26 06:37:17;;;;;;;19.40;4.85;;;15.40;95.90;;;;;;4967968;28;20505;-65
2023/05/26 06:39:43;;;;;;;15.25;4.10;;;15.60;95.80;;;;;;4967176;28;20034;-64
2023/05/26 06:42:15;;;;;;;17.70;4.03;;;15.60;95.60;;;;;;4967787;28;20034;-65
2023/05/26 06:44:41;;;;;;;19.52;4.60;;;15.70;95.30;;;;;;4968129;28;20058;-64
2023/05/26 06:47:08;;;;;;;17.83;3.95;;;15.70;95.10;;;;;;4967807;28;20034;-64
2023/05/26 06:49:38;;;;;;;17.77;4.57;;;15.80;94.60;;;;;;4984164;28;20043;-65
2023/05/26 06:52:08;;;;;;;22.38;4.78;;;15.80;94.60;;;;;;4967749;28;20117;-65
2023/05/26 06:54:34;;;;;;;11.07;3.95;;;15.90;94.50;;;;;;4984461;28;20041;-64
2023/05/26 06:57:00;;;;;;;18.27;4.43;;;16.00;94.30;;;;;;4985299;28;20038;-65
2023/05/26 06:59:26;;;;;;;15.05;4.28;;;16.00;93.40;;;;;;4967150;28;20486;-65
2023/05/26 07:01:52;;;;;;;17.70;4.22;;;16.00;93.50;;;;;;4966858;28;20041;-65
2023/05/26 07:04:18;;;;;;;14.80;4.38;;;16.00;93.80;;;;;;4967760;28;20034;-64
2023/05/26 07:06:44;;;;;;;21.40;4.53;;;16.10;93.60;;;;;;4967547;28;20129;-65
2023/05/26 07:09:10;;;;;;;21.15;4.47;;;16.20;93.80;;;;;;4983950;28;20393;-65
2023/05/26 07:11:46;;;;;;;14.77;4.07;;;16.30;93.60;;;;;;4980291;28;20180;-65
2023/05/26 07:14:32;;;;;;;19.83;4.43;;;16.40;93.20;;;;;;5004175;28;20042;-64
2023/05/26 07:16:58;;;;;;;16.75;3.85;;;16.50;93.00;;;;;;4986304;28;21074;-65
2023/05/26 07:19:24;;;;;;;19.02;4.10;;;16.60;93.00;;;;;;5002425;28;20289;-65
2023/05/26 07:21:50;;;;;;;16.92;4.05;;;16.60;92.60;;;;;;4986424;28;20521;-64
2023/05/26 07:24:16;;;;;;;18.60;4.70;;;16.60;92.20;;;;;;4986488;28;20061;-66
2023/05/26 07:26:42;;;;;;;19.20;4.00;;;16.70;92.10;;;;;;4987313;28;20815;-64
2023/05/26 07:29:08;;;;;;;12.93;3.40;;;16.70;92.10;;;;;;4986375;28;20038;-64
2023/05/26 07:31:34;;;;;;;21.92;4.15;;;16.80;91.90;;;;;;5004671;28;20037;-64
2023/05/26 07:34:00;;;;;;;21.33;4.22;;;16.80;91.90;;;;;;5004657;28;20132;-64
2023/05/26 07:36:26;;;;;;;19.00;3.85;;;16.80;91.90;;;;;;5004664;28;20100;-64
2023/05/26 07:38:52;;;;;;;14.15;4.00;;;16.80;91.80;;;;;;5003127;28;20030;-64
2023/05/26 07:41:18;;;;;;;16.75;3.55;;;16.90;91.60;;;;;;5004448;28;20065;-64
2023/05/26 07:43:43;;;;;;;18.95;4.50;;;17.00;91.60;;;;;;5004499;28;20037;-65
2023/05/26 07:46:09;;;;;;;22.67;5.03;;;17.10;91.60;;;;;;4994626;28;20038;-64
2023/05/26 07:48:35;;;;;;;18.73;4.57;;;17.10;91.50;;;;;;4983861;28;20137;-64
2023/05/26 07:51:00;;;;;;;17.83;4.20;;;17.10;91.30;;;;;;4984569;28;20038;-66
2023/05/26 07:53:26;;;;;;;15.77;4.55;;;17.20;90.90;;;;;;4986779;28;20034;-66
2023/05/26 07:55:52;;;;;;;14.57;3.70;;;17.30;90.60;;;;;;4984891;28;20030;-66
2023/05/26 07:58:18;;;;;;;19.48;4.55;;;17.30;90.00;;;;;;4983879;28;20634;-66
2023/05/26 08:00:44;;;;;;;17.92;4.07;;;17.40;88.00;;;;;;4982061;28;20041;-66
2023/05/26 08:03:09;;;;;;;14.25;3.63;;;17.40;89.60;;;;;;4984133;28;20038;-66
2023/05/26 08:05:36;;;;;;;19.95;4.18;;;17.40;88.70;;;;;;4983230;28;20137;-66
2023/05/26 08:08:01;;;;;;;18.05;3.88;;;17.40;88.70;;;;;;4982694;28;20060;-66
2023/05/26 08:10:27;;;;;;;17.55;4.22;;;17.50;89.50;;;;;;4984518;28;20030;-66
2023/05/26 08:12:54;;;;;;;23.17;4.22;;;17.60;89.00;;;;;;4992961;28;20049;-66
2023/05/26 08:15:21;;;;;;;17.40;3.72;;;17.60;87.80;;;;;;5002485;28;20077;-66
2023/05/26 08:17:47;;;;;;;17.08;4.53;;;17.70;86.70;;;;;;5003230;28;20044;-66
2023/05/26 08:20:13;;;;;;;15.20;4.60;;;17.70;86.50;;;;;;5003401;28;20037;-67
2023/05/26 08:22:39;;;;;;;22.48;4.30;;;17.80;87.40;;;;;;4985984;28;20119;-66
2023/05/26 08:25:05;;;;;;;22.17;4.65;;;17.90;86.00;;;;;;5004076;28;20026;-65
2023/05/26 08:27:31;;;;;;;17.65;3.58;;;17.90;84.00;;;;;;5003265;28;20038;-66
2023/05/26 08:29:57;;;;;;;15.88;3.47;;;18.00;85.70;;;;;;5004015;28;20037;-66
2023/05/26 08:32:23;;;;;;;21.75;4.88;;;18.00;83.60;;;;;;5003982;28;20040;-66
2023/05/26 08:34:49;;;;;;;23.30;4.38;;;18.00;84.10;;;;;;4986593;28;20034;-66
2023/05/26 08:37:16;;;;;;;13.43;3.53;;;18.10;84.80;;;;;;5004576;28;20386;-67
2023/05/26 08:39:42;;;;;;;19.05;4.03;;;18.20;86.30;;;;;;4985772;28;20037;-66
2023/05/26 08:42:14;;;;;;;19.08;3.65;;;18.30;84.90;;;;;;5003698;28;20049;-66
2023/05/26 08:44:40;;;;;;;21.83;4.45;;;18.50;82.30;;;;;;5004361;28;20495;-66
2023/05/26 08:47:07;;;;;;;22.10;3.95;;;18.60;81.20;;;;;;5003544;28;20038;-65
2023/05/26 08:49:39;;;;;;;19.88;4.20;;;18.70;81.90;;;;;;4986008;28;20473;-65
2023/05/26 08:52:13;;;;;;;22.90;3.88;;;18.70;81.60;;;;;;5004090;28;20038;-66
2023/05/26 08:54:43;;;;;;;21.20;4.93;;;18.70;79.60;;;;;;5003732;28;20040;-66
2023/05/26 08:57:11;;;;;;;19.80;4.18;;;18.80;79.00;;;;;;5004042;28;20042;-66
2023/05/26 08:59:38;;;;;;;22.73;4.22;;;18.70;80.60;;;;;;5003506;28;20128;-66
2023/05/26 09:02:04;;;;;;;16.77;4.07;;;18.80;81.70;;;;;;5003846;28;20026;-65
2023/05/26 09:04:30;;;;;;;13.73;3.58;;;19.00;81.40;;;;;;5003668;28;20037;-66
2023/05/26 09:06:57;;;;;;;21.02;4.60;;;19.10;79.00;;;;;;5002851;28;20041;-66
2023/05/26 09:09:23;;;;;;;18.83;4.22;;;19.30;79.70;;;;;;5002650;28;20053;-66
2023/05/26 09:11:49;;;;;;;19.23;3.58;;;19.40;78.90;;;;;;4997896;28;20045;-65
2023/05/26 09:14:16;;;;;;;11.25;3.40;;;19.70;78.60;;;;;;4983861;28;20513;-65
2023/05/26 09:16:43;;;;;;;18.77;3.60;;;19.80;75.30;;;;;;4983956;28;20035;-65
2023/05/26 09:19:18;;;;;;;19.48;4.07;;;19.70;77.70;;;;;;4983835;28;20034;-64
2023/05/26 09:21:53;;;;;;;11.32;3.55;;;19.80;78.60;;;;;;4985481;28;20042;-65
2023/05/26 09:24:22;;;;;;;12.93;3.72;;;19.90;72.70;;;;;;4985672;28;20383;-65
2023/05/26 09:26:50;;;;;;;15.85;4.07;;;19.90;74.60;;;;;;4984003;28;20046;-64
2023/05/26 09:29:16;;;;;;;15.77;3.97;;;20.00;76.40;;;;;;4987718;28;20040;-65
2023/05/26 09:31:46;;;;;;;10.07;3.35;;;20.10;73.50;;;;;;4986220;28;20128;-66
2023/05/26 09:34:14;;;;;;;17.23;3.80;;;20.10;71.50;;;;;;4993568;28;20056;-66
2023/05/26 09:36:41;;;;;;;13.93;3.42;;;20.20;73.60;;;;;;4987090;28;20042;-65
2023/05/26 09:39:12;;;;;;;13.82;4.43;;;20.30;72.40;;;;;;4987325;28;20053;-65
2023/05/26 09:41:43;;;;;;;15.52;3.83;;;20.30;71.30;;;;;;4987187;28;20074;-65
2023/05/26 09:44:19;;;;;;;16.70;3.63;;;20.40;68.20;;;;;;4987307;28;20041;-65
2023/05/26 09:46:46;;;;;;;12.55;3.70;;;20.40;69.30;;;;;;4987512;28;20044;-65
2023/05/26 09:49:14;;;;;;;15.18;3.53;;;20.40;70.60;;;;;;4993732;28;20177;-65
2023/05/26 09:51:41;;;;;;;16.80;4.10;;;20.50;70.50;;;;;;4984659;28;20557;-66
2023/05/26 09:54:09;;;;;;;14.15;3.20;;;20.50;72.00;;;;;;4985253;28;20022;-65
2023/05/26 09:56:37;;;;;;;14.02;3.72;;;20.70;69.70;;;;;;4985311;28;20530;-65
2023/05/26 09:59:07;;;;;;;13.27;3.65;;;21.00;69.30;;;;;;4995597;28;20671;-65
2023/05/26 10:01:37;;;;;;;18.45;3.67;;;21.30;65.50;;;;;;5006825;28;20038;-65
2023/05/26 10:04:06;;;;;;;16.33;3.60;;;21.60;66.40;;;;;;5006777;28;20058;-65
2023/05/26 10:06:34;;;;;;;16.60;4.18;;;21.80;63.90;;;;;;5006649;28;20096;-66
2023/05/26 10:09:01;;;;;;;13.13;4.07;;;21.60;64.60;;;;;;5006307;28;20041;-65
2023/05/26 10:11:29;;;;;;;15.07;4.07;;;21.60;65.20;;;;;;5006161;28;20070;-64
2023/05/26 10:13:57;;;;;;;15.70;3.50;;;21.50;63.80;;;;;;5006116;28;20116;-65
2023/05/26 10:16:23;;;;;;;18.90;3.70;;;21.40;62.10;;;;;;4990546;28;20038;-65
2023/05/26 10:18:49;;;;;;;13.85;3.20;;;21.40;63.40;;;;;;4986630;28;20117;-65
2023/05/26 10:21:20;;;;;;;14.65;3.25;;;21.10;62.80;;;;;;4986038;28;20478;-64
2023/05/26 10:24:19;;;;;;;14.02;3.47;;;21.10;61.50;;;;;;4986516;28;20176;-65
2023/05/26 10:26:54;;;;;;;11.00;3.03;;;21.00;61.90;;;;;;4971865;28;20134;-65
2023/05/26 10:29:25;;;;;;;15.00;3.53;;;21.10;63.30;;;;;;4986044;28;20058;-65
2023/05/26 10:31:52;;;;;;;13.65;3.33;;;21.40;62.80;;;;;;4986752;28;20513;-65
2023/05/26 10:34:45;;;;;;;15.60;3.30;;;21.30;62.40;;;;;;4986563;28;20042;-65
2023/05/26 10:37:16;;;;;;;9.63;2.90;;;21.40;60.00;;;;;;4986088;28;20438;-65
2023/05/26 10:39:42;;;;;;;15.20;3.72;;;21.60;60.50;;;;;;4986472;28;20039;-65
2023/05/26 10:42:19;;;;;;;15.90;3.28;;;21.80;60.30;;;;;;4985294;28;20116;-65
2023/05/26 10:44:47;;;;;;;16.13;3.38;;;22.20;58.20;;;;;;4986120;28;20676;-65
2023/05/26 10:47:14;;;;;;;15.43;3.60;;;22.50;57.60;;;;;;4985803;28;20038;-63
2023/05/26 10:49:40;;;;;;;14.45;4.10;;;22.80;55.70;;;;;;4985219;28;20080;-64
2023/05/26 10:52:14;;;;;;;12.57;2.80;;;22.90;55.80;;;;;;4985466;28;20026;-64
2023/05/26 10:54:42;;;;;;;11.95;3.22;;;22.80;53.20;;;;;;4985441;28;20042;-65
2023/05/26 10:57:29;;;;;;;11.18;3.40;;;22.80;53.10;;;;;;4985881;28;20027;-64
2023/05/26 10:59:55;;;;;;;16.23;3.83;;;22.80;54.80;;;;;;4985300;28;20030;-63
2023/05/26 11:02:21;;;;;;;12.35;3.47;;;22.80;54.20;;;;;;4985678;28;20030;-65
2023/05/26 11:04:49;;;;;;;11.25;3.08;;;22.80;55.00;;;;;;4967877;28;20042;-65
2023/05/26 11:07:17;;;;;;;16.38;3.00;;;22.50;54.10;;;;;;4985214;28;20049;-64
2023/05/26 11:09:57;;;;;;;11.70;3.05;;;22.40;54.30;;;;;;4984584;28;20489;-65
2023/05/26 11:12:23;;;;;;;8.85;2.42;;;22.20;53.80;;;;;;4985350;28;20026;-64
2023/05/26 11:14:49;;;;;;;11.68;2.60;;;22.10;55.10;;;;;;4984854;28;20035;-65
2023/05/26 11:17:19;;;;;;;12.77;3.20;;;22.00;55.00;;;;;;4984801;28;20037;-65
2023/05/26 11:19:54;;;;;;;15.73;3.38;;;21.90;56.60;;;;;;4984980;28;20038;-65
2023/05/26 11:22:23;;;;;;;11.68;2.92;;;21.80;55.10;;;;;;4985104;28;20022;-64
2023/05/26 11:24:51;;;;;;;9.98;2.90;;;21.70;54.80;;;;;;4985215;28;20030;-64
2023/05/26 11:27:17;;;;;;;10.38;2.75;;;21.70;55.30;;;;;;4983102;28;20052;-64
2023/05/26 11:29:46;;;;;;;12.02;3.28;;;21.60;53.60;;;;;;4984180;28;20494;-65
2023/05/26 11:32:13;;;;;;;15.85;2.80;;;21.60;55.20;;;;;;4984603;28;20042;-65
2023/05/26 11:34:39;;;;;;;8.75;3.03;;;21.60;53.70;;;;;;4967196;28;20500;-65
2023/05/26 11:37:08;;;;;;;12.73;3.30;;;21.60;55.20;;;;;;4984657;28;20443;-65
2023/05/26 11:39:38;;;;;;;8.68;2.63;;;21.50;54.50;;;;;;4983550;28;20035;-64
2023/05/26 11:42:10;;;;;;;10.55;3.42;;;21.50;54.40;;;;;;4982320;28;20701;-65
2023/05/26 11:44:36;;;;;;;12.57;3.65;;;21.40;51.70;;;;;;4969759;28;20026;-64
2023/05/26 11:47:02;;;;;;;9.95;3.30;;;21.30;52.20;;;;;;4986061;28;20046;-64
2023/05/26 11:49:27;;;;;;;12.00;3.38;;;21.20;51.40;;;;;;4981751;28;20066;-64
2023/05/26 11:51:53;;;;;;;10.25;3.03;;;21.30;51.00;;;;;;4980820;28;20042;-64
2023/05/26 11:54:20;;;;;;;10.82;3.40;;;21.40;50.10;;;;;;4980980;28;20109;-65
2023/05/26 11:56:46;;;;;;;7.38;2.15;;;21.40;50.30;;;;;;4983793;28;20666;-65
2023/05/26 11:59:20;;;;;;;10.88;2.65;;;21.30;50.20;;;;;;4982863;28;20413;-64
2023/05/26 12:01:46;;;;;;;6.38;2.53;;;21.40;48.90;;;;;;4983398;28;20030;-64
2023/05/26 12:04:13;;;;;;;8.85;2.50;;;21.30;49.50;;;;;;4986516;28;20029;-64
2023/05/26 12:06:43;;;;;;;12.15;2.50;;;21.20;49.80;;;;;;4982631;28;20633;-64
2023/05/26 12:09:17;;;;;;;7.75;2.20;;;21.30;48.70;;;;;;4985009;28;20046;-65
2023/05/26 12:11:47;;;;;;;11.88;2.90;;;21.20;49.00;;;;;;5003741;28;20930;-64
2023/05/26 12:14:14;;;;;;;12.38;2.22;;;21.20;51.70;;;;;;5003364;28;20096;-64
2023/05/26 12:16:46;;;;;;;7.07;2.25;;;21.30;51.30;;;;;;5003854;28;20044;-64
2023/05/26 12:19:19;;;;;;;7.97;2.58;;;21.20;50.40;;;;;;5003545;28;20505;-64
2023/05/26 12:21:56;;;;;;;9.93;2.95;;;21.20;50.30;;;;;;5003772;28;20481;-64
2023/05/26 12:24:33;;;;;;;9.82;2.55;;;21.10;51.80;;;;;;5003928;28;20546;-65
2023/05/26 12:27:09;;;;;;;9.50;2.90;;;21.20;50.80;;;;;;5002719;28;20046;-65
2023/05/26 12:29:36;;;;;;;;;;;21.20;48.10;;;;;;5002444;28;20049;-64
2023/05/26 12:32:04;;;;;;;9.75;2.80;;;21.10;50.60;;;;;;5003153;28;19914;-67
2023/05/26 12:34:30;;;;;;;11.45;2.80;;;21.10;52.70;;;;;;5002491;28;20061;-65
2023/05/26 12:36:56;;;;;;;12.05;2.70;;;21.10;51.80;;;;;;5003206;28;20539;-65
2023/05/26 12:39:22;;;;;;;21.90;3.30;;;21.20;51.60;;;;;;5002290;28;20481;-64
2023/05/26 12:41:48;;;;;;;7.68;2.53;;;21.30;51.50;;;;;;5001839;28;20030;-65
2023/05/26 12:44:15;;;;;;;14.00;3.13;;;21.30;51.30;;;;;;5001788;28;20030;-65